Gibraltar, Gibraltar
Current Conditions -  °F | °C
As of 5:50 PM on Thursday 18 Dec 2014 (Local Time) from LXGB Reporting Station
Few Clouds Few Clouds  
Wind Chill: 64°   Ceiling: Unl
Heat Index: 64°   Visibility: 6mi
Dew Point: 52°   Wind: 13mph
Humidity: 64%   Direction: 230°SW
Pressure: 30.27"   Gusts: NA
Location:  36.14°N, 5.35°W
Report Text: LXGB 181550Z 23011KT 9999 FEW030 18/11 Q1025 NOSIG
Loading
Personal Weather Stations






























Interactive Weather Map New forecast layout! Learn more

10-Day Weather Forecast

Advertisements
Track Severe Weather on mobile